sensor_id;sensor_type;location;lat;lon;timestamp;P1;durP1;ratioP1;P2;durP2;ratioP2
10687;SDS011;5392;42.688;23.298;2023-11-19T00:01:50;0.50;;;0.50;;
10687;SDS011;5392;42.688;23.298;2023-11-19T00:04:17;0.50;;;0.50;;
10687;SDS011;5392;42.688;23.298;2023-11-19T00:06:44;0.50;;;0.50;;
10687;SDS011;5392;42.688;23.298;2023-11-19T00:09:11;0.55;;;0.55;;
10687;SDS011;5392;42.688;23.298;2023-11-19T00:11:38;0.50;;;0.50;;
10687;SDS011;5392;42.688;23.298;2023-11-19T00:14:04;0.50;;;0.50;;
10687;SDS011;5392;42.688;23.298;2023-11-19T00:16:35;0.50;;;0.50;;
10687;SDS011;5392;42.688;23.298;2023-11-19T00:19:01;0.57;;;0.57;;
10687;SDS011;5392;42.688;23.298;2023-11-19T00:21:30;0.60;;;0.60;;
10687;SDS011;5392;42.688;23.298;2023-11-19T00:23:59;0.50;;;0.50;;
10687;SDS011;5392;42.688;23.298;2023-11-19T00:26:26;0.50;;;0.50;;
10687;SDS011;5392;42.688;23.298;2023-11-19T00:28:52;0.75;;;0.55;;
10687;SDS011;5392;42.688;23.298;2023-11-19T00:31:19;0.60;;;0.60;;
10687;SDS011;5392;42.688;23.298;2023-11-19T00:33:45;0.60;;;0.60;;
10687;SDS011;5392;42.688;23.298;2023-11-19T00:36:15;0.50;;;0.50;;
10687;SDS011;5392;42.688;23.298;2023-11-19T00:38:41;0.50;;;0.50;;
10687;SDS011;5392;42.688;23.298;2023-11-19T00:41:08;1.58;;;0.43;;
10687;SDS011;5392;42.688;23.298;2023-11-19T00:43:35;1.23;;;0.60;;
10687;SDS011;5392;42.688;23.298;2023-11-19T00:46:01;0.60;;;0.60;;
10687;SDS011;5392;42.688;23.298;2023-11-19T00:48:30;0.60;;;0.50;;
10687;SDS011;5392;42.688;23.298;2023-11-19T00:50:58;0.50;;;0.50;;
10687;SDS011;5392;42.688;23.298;2023-11-19T00:53:24;0.50;;;0.50;;
10687;SDS011;5392;42.688;23.298;2023-11-19T00:55:51;0.50;;;0.50;;
10687;SDS011;5392;42.688;23.298;2023-11-19T00:58:18;0.68;;;0.60;;
10687;SDS011;5392;42.688;23.298;2023-11-19T01:00:44;0.52;;;0.52;;
10687;SDS011;5392;42.688;23.298;2023-11-19T01:03:11;1.67;;;0.40;;
10687;SDS011;5392;42.688;23.298;2023-11-19T01:05:38;0.50;;;0.50;;
10687;SDS011;5392;42.688;23.298;2023-11-19T01:08:05;0.93;;;0.50;;
10687;SDS011;5392;42.688;23.298;2023-11-19T01:10:32;0.50;;;0.50;;
10687;SDS011;5392;42.688;23.298;2023-11-19T01:13:00;0.57;;;0.50;;
10687;SDS011;5392;42.688;23.298;2023-11-19T01:15:27;1.67;;;0.50;;
10687;SDS011;5392;42.688;23.298;2023-11-19T01:17:53;0.50;;;0.50;;
10687;SDS011;5392;42.688;23.298;2023-11-19T01:20:20;0.40;;;0.40;;
10687;SDS011;5392;42.688;23.298;2023-11-19T01:22:47;0.50;;;0.50;;
10687;SDS011;5392;42.688;23.298;2023-11-19T01:25:15;0.52;;;0.50;;
10687;SDS011;5392;42.688;23.298;2023-11-19T01:27:41;0.57;;;0.50;;
10687;SDS011;5392;42.688;23.298;2023-11-19T01:30:08;0.68;;;0.50;;
10687;SDS011;5392;42.688;23.298;2023-11-19T01:32:41;0.45;;;0.45;;
10687;SDS011;5392;42.688;23.298;2023-11-19T01:35:08;0.50;;;0.50;;
10687;SDS011;5392;42.688;23.298;2023-11-19T01:37:35;0.40;;;0.40;;
10687;SDS011;5392;42.688;23.298;2023-11-19T01:40:03;0.40;;;0.40;;
10687;SDS011;5392;42.688;23.298;2023-11-19T01:42:35;1.85;;;0.50;;
10687;SDS011;5392;42.688;23.298;2023-11-19T01:45:02;0.40;;;0.40;;
10687;SDS011;5392;42.688;23.298;2023-11-19T01:47:29;2.05;;;0.50;;
10687;SDS011;5392;42.688;23.298;2023-11-19T01:49:56;0.40;;;0.40;;
10687;SDS011;5392;42.688;23.298;2023-11-19T01:52:23;0.45;;;0.45;;
10687;SDS011;5392;42.688;23.298;2023-11-19T01:54:50;0.50;;;0.50;;
10687;SDS011;5392;42.688;23.298;2023-11-19T01:57:17;0.75;;;0.40;;
10687;SDS011;5392;42.688;23.298;2023-11-19T01:59:43;0.45;;;0.45;;
10687;SDS011;5392;42.688;23.298;2023-11-19T02:02:11;0.40;;;0.40;;
10687;SDS011;5392;42.688;23.298;2023-11-19T02:04:39;0.40;;;0.40;;
10687;SDS011;5392;42.688;23.298;2023-11-19T02:07:07;0.50;;;0.50;;
10687;SDS011;5392;42.688;23.298;2023-11-19T02:09:34;0.40;;;0.40;;
10687;SDS011;5392;42.688;23.298;2023-11-19T02:12:00;2.95;;;0.50;;
10687;SDS011;5392;42.688;23.298;2023-11-19T02:14:27;0.50;;;0.50;;
10687;SDS011;5392;42.688;23.298;2023-11-19T02:16:55;0.40;;;0.40;;
10687;SDS011;5392;42.688;23.298;2023-11-19T02:19:22;0.40;;;0.40;;
10687;SDS011;5392;42.688;23.298;2023-11-19T02:21:49;0.50;;;0.40;;
10687;SDS011;5392;42.688;23.298;2023-11-19T02:24:15;0.40;;;0.40;;
10687;SDS011;5392;42.688;23.298;2023-11-19T02:26:47;0.40;;;0.40;;
10687;SDS011;5392;42.688;23.298;2023-11-19T02:29:18;0.50;;;0.50;;
10687;SDS011;5392;42.688;23.298;2023-11-19T02:31:45;0.40;;;0.40;;
10687;SDS011;5392;42.688;23.298;2023-11-19T02:34:12;0.40;;;0.40;;
10687;SDS011;5392;42.688;23.298;2023-11-19T02:36:39;0.47;;;0.47;;
10687;SDS011;5392;42.688;23.298;2023-11-19T02:39:08;0.40;;;0.40;;
10687;SDS011;5392;42.688;23.298;2023-11-19T02:41:37;0.65;;;0.50;;
10687;SDS011;5392;42.688;23.298;2023-11-19T02:44:06;0.60;;;0.60;;
10687;SDS011;5392;42.688;23.298;2023-11-19T02:46:33;0.70;;;0.70;;
10687;SDS011;5392;42.688;23.298;2023-11-19T02:49:00;0.50;;;0.50;;
10687;SDS011;5392;42.688;23.298;2023-11-19T02:51:26;0.50;;;0.50;;
10687;SDS011;5392;42.688;23.298;2023-11-19T02:53:54;0.75;;;0.50;;
10687;SDS011;5392;42.688;23.298;2023-11-19T02:56:20;0.50;;;0.50;;
10687;SDS011;5392;42.688;23.298;2023-11-19T02:58:52;0.50;;;0.50;;
10687;SDS011;5392;42.688;23.298;2023-11-19T03:01:25;0.50;;;0.50;;
10687;SDS011;5392;42.688;23.298;2023-11-19T03:04:00;0.50;;;0.50;;
10687;SDS011;5392;42.688;23.298;2023-11-19T03:06:28;0.57;;;0.57;;
10687;SDS011;5392;42.688;23.298;2023-11-19T03:08:55;0.50;;;0.50;;
10687;SDS011;5392;42.688;23.298;2023-11-19T03:11:22;0.65;;;0.52;;
10687;SDS011;5392;42.688;23.298;2023-11-19T03:13:48;0.40;;;0.40;;
10687;SDS011;5392;42.688;23.298;2023-11-19T03:16:15;0.50;;;0.50;;
10687;SDS011;5392;42.688;23.298;2023-11-19T03:18:43;0.93;;;0.50;;
10687;SDS011;5392;42.688;23.298;2023-11-19T03:21:10;0.60;;;0.60;;
10687;SDS011;5392;42.688;23.298;2023-11-19T03:23:36;0.50;;;0.50;;
10687;SDS011;5392;42.688;23.298;2023-11-19T03:26:03;0.52;;;0.52;;
10687;SDS011;5392;42.688;23.298;2023-11-19T03:28:31;0.50;;;0.50;;
10687;SDS011;5392;42.688;23.298;2023-11-19T03:30:58;0.50;;;0.50;;
10687;SDS011;5392;42.688;23.298;2023-11-19T03:33:25;1.20;;;0.50;;
10687;SDS011;5392;42.688;23.298;2023-11-19T03:35:54;3.30;;;0.50;;
10687;SDS011;5392;42.688;23.298;2023-11-19T03:38:23;0.50;;;0.50;;
10687;SDS011;5392;42.688;23.298;2023-11-19T03:40:50;0.60;;;0.60;;
10687;SDS011;5392;42.688;23.298;2023-11-19T03:43:16;2.35;;;0.55;;
10687;SDS011;5392;42.688;23.298;2023-11-19T03:45:43;0.50;;;0.50;;
10687;SDS011;5392;42.688;23.298;2023-11-19T03:48:09;1.48;;;0.43;;
10687;SDS011;5392;42.688;23.298;2023-11-19T03:50:36;0.60;;;0.60;;
10687;SDS011;5392;42.688;23.298;2023-11-19T03:53:03;0.80;;;0.60;;
10687;SDS011;5392;42.688;23.298;2023-11-19T03:55:31;0.50;;;0.50;;
10687;SDS011;5392;42.688;23.298;2023-11-19T03:57:57;0.82;;;0.43;;
10687;SDS011;5392;42.688;23.298;2023-11-19T04:00:24;0.40;;;0.40;;
10687;SDS011;5392;42.688;23.298;2023-11-19T04:02:51;0.50;;;0.50;;
10687;SDS011;5392;42.688;23.298;2023-11-19T04:05:18;0.40;;;0.40;;
10687;SDS011;5392;42.688;23.298;2023-11-19T04:07:45;0.40;;;0.40;;
10687;SDS011;5392;42.688;23.298;2023-11-19T04:10:11;0.50;;;0.50;;
10687;SDS011;5392;42.688;23.298;2023-11-19T04:12:38;0.50;;;0.50;;
10687;SDS011;5392;42.688;23.298;2023-11-19T04:15:05;0.40;;;0.40;;
10687;SDS011;5392;42.688;23.298;2023-11-19T04:17:32;0.68;;;0.50;;
10687;SDS011;5392;42.688;23.298;2023-11-19T04:19:59;0.50;;;0.50;;
10687;SDS011;5392;42.688;23.298;2023-11-19T04:22:25;0.50;;;0.50;;
10687;SDS011;5392;42.688;23.298;2023-11-19T04:24:52;0.50;;;0.50;;
10687;SDS011;5392;42.688;23.298;2023-11-19T04:27:19;1.45;;;0.60;;
10687;SDS011;5392;42.688;23.298;2023-11-19T04:29:46;0.55;;;0.50;;
10687;SDS011;5392;42.688;23.298;2023-11-19T04:32:13;0.50;;;0.50;;
10687;SDS011;5392;42.688;23.298;2023-11-19T04:34:40;0.90;;;0.50;;
10687;SDS011;5392;42.688;23.298;2023-11-19T04:37:06;0.50;;;0.50;;
10687;SDS011;5392;42.688;23.298;2023-11-19T04:39:36;0.70;;;0.70;;
10687;SDS011;5392;42.688;23.298;2023-11-19T04:42:03;0.50;;;0.50;;
10687;SDS011;5392;42.688;23.298;2023-11-19T04:44:30;0.55;;;0.55;;
10687;SDS011;5392;42.688;23.298;2023-11-19T04:46:57;0.50;;;0.50;;
10687;SDS011;5392;42.688;23.298;2023-11-19T04:49:24;0.60;;;0.60;;
10687;SDS011;5392;42.688;23.298;2023-11-19T04:51:53;0.50;;;0.50;;
10687;SDS011;5392;42.688;23.298;2023-11-19T04:54:20;0.50;;;0.50;;
10687;SDS011;5392;42.688;23.298;2023-11-19T04:56:47;3.70;;;0.63;;
10687;SDS011;5392;42.688;23.298;2023-11-19T04:59:15;0.60;;;0.60;;
10687;SDS011;5392;42.688;23.298;2023-11-19T05:01:46;1.00;;;0.80;;
10687;SDS011;5392;42.688;23.298;2023-11-19T05:04:13;0.65;;;0.65;;
10687;SDS011;5392;42.688;23.298;2023-11-19T05:06:40;2.05;;;0.70;;
10687;SDS011;5392;42.688;23.298;2023-11-19T05:09:06;0.73;;;0.50;;
10687;SDS011;5392;42.688;23.298;2023-11-19T05:11:36;0.50;;;0.50;;
10687;SDS011;5392;42.688;23.298;2023-11-19T05:14:16;0.60;;;0.60;;
10687;SDS011;5392;42.688;23.298;2023-11-19T05:16:42;0.55;;;0.55;;
10687;SDS011;5392;42.688;23.298;2023-11-19T05:19:09;0.57;;;0.57;;
10687;SDS011;5392;42.688;23.298;2023-11-19T05:21:36;0.95;;;0.90;;
10687;SDS011;5392;42.688;23.298;2023-11-19T05:24:03;0.70;;;0.70;;
10687;SDS011;5392;42.688;23.298;2023-11-19T05:26:33;0.50;;;0.50;;
10687;SDS011;5392;42.688;23.298;2023-11-19T05:28:59;0.50;;;0.50;;
10687;SDS011;5392;42.688;23.298;2023-11-19T05:31:26;0.50;;;0.50;;
10687;SDS011;5392;42.688;23.298;2023-11-19T05:33:53;0.55;;;0.50;;
10687;SDS011;5392;42.688;23.298;2023-11-19T05:36:20;1.20;;;0.50;;
10687;SDS011;5392;42.688;23.298;2023-11-19T05:38:46;0.50;;;0.50;;
10687;SDS011;5392;42.688;23.298;2023-11-19T05:41:13;0.50;;;0.50;;
10687;SDS011;5392;42.688;23.298;2023-11-19T05:43:40;0.50;;;0.50;;
10687;SDS011;5392;42.688;23.298;2023-11-19T05:46:09;0.70;;;0.70;;
10687;SDS011;5392;42.688;23.298;2023-11-19T05:48:39;0.60;;;0.60;;
10687;SDS011;5392;42.688;23.298;2023-11-19T05:51:05;0.80;;;0.68;;
10687;SDS011;5392;42.688;23.298;2023-11-19T05:53:32;1.67;;;0.63;;
10687;SDS011;5392;42.688;23.298;2023-11-19T05:55:59;0.50;;;0.50;;
10687;SDS011;5392;42.688;23.298;2023-11-19T05:58:30;0.57;;;0.57;;
10687;SDS011;5392;42.688;23.298;2023-11-19T06:00:57;0.80;;;0.80;;
10687;SDS011;5392;42.688;23.298;2023-11-19T06:03:23;0.60;;;0.60;;
10687;SDS011;5392;42.688;23.298;2023-11-19T06:05:50;0.70;;;0.70;;
10687;SDS011;5392;42.688;23.298;2023-11-19T06:08:17;1.45;;;0.80;;
10687;SDS011;5392;42.688;23.298;2023-11-19T06:10:44;0.90;;;0.90;;
10687;SDS011;5392;42.688;23.298;2023-11-19T06:13:13;0.50;;;0.50;;
10687;SDS011;5392;42.688;23.298;2023-11-19T06:15:41;0.80;;;0.80;;
10687;SDS011;5392;42.688;23.298;2023-11-19T06:18:08;0.90;;;0.90;;
10687;SDS011;5392;42.688;23.298;2023-11-19T06:20:36;2.22;;;2.13;;
10687;SDS011;5392;42.688;23.298;2023-11-19T06:23:05;2.97;;;1.65;;
10687;SDS011;5392;42.688;23.298;2023-11-19T06:25:33;3.15;;;1.30;;
10687;SDS011;5392;42.688;23.298;2023-11-19T06:28:01;1.15;;;1.15;;
10687;SDS011;5392;42.688;23.298;2023-11-19T06:30:28;2.03;;;1.13;;
10687;SDS011;5392;42.688;23.298;2023-11-19T06:32:56;0.80;;;0.77;;
10687;SDS011;5392;42.688;23.298;2023-11-19T06:35:23;1.15;;;1.08;;
10687;SDS011;5392;42.688;23.298;2023-11-19T06:37:49;2.15;;;1.00;;
10687;SDS011;5392;42.688;23.298;2023-11-19T06:40:16;1.13;;;1.10;;
10687;SDS011;5392;42.688;23.298;2023-11-19T06:42:43;0.80;;;0.80;;
10687;SDS011;5392;42.688;23.298;2023-11-19T06:45:09;0.95;;;0.95;;
10687;SDS011;5392;42.688;23.298;2023-11-19T06:47:36;1.20;;;1.10;;
10687;SDS011;5392;42.688;23.298;2023-11-19T06:50:03;1.17;;;1.17;;
10687;SDS011;5392;42.688;23.298;2023-11-19T06:52:32;1.38;;;0.80;;
10687;SDS011;5392;42.688;23.298;2023-11-19T06:54:58;1.17;;;1.02;;
10687;SDS011;5392;42.688;23.298;2023-11-19T06:57:28;1.00;;;0.75;;
10687;SDS011;5392;42.688;23.298;2023-11-19T06:59:56;1.15;;;0.73;;
10687;SDS011;5392;42.688;23.298;2023-11-19T07:02:22;1.30;;;1.10;;
10687;SDS011;5392;42.688;23.298;2023-11-19T07:04:52;1.80;;;0.80;;
10687;SDS011;5392;42.688;23.298;2023-11-19T07:07:18;0.90;;;0.90;;
10687;SDS011;5392;42.688;23.298;2023-11-19T07:09:46;1.15;;;0.93;;
10687;SDS011;5392;42.688;23.298;2023-11-19T07:12:12;1.63;;;0.80;;
10687;SDS011;5392;42.688;23.298;2023-11-19T07:14:40;0.65;;;0.65;;
10687;SDS011;5392;42.688;23.298;2023-11-19T07:17:08;1.15;;;0.80;;
10687;SDS011;5392;42.688;23.298;2023-11-19T07:19:37;1.15;;;1.15;;
10687;SDS011;5392;42.688;23.298;2023-11-19T07:22:05;0.70;;;0.70;;
10687;SDS011;5392;42.688;23.298;2023-11-19T07:24:32;1.00;;;1.00;;
10687;SDS011;5392;42.688;23.298;2023-11-19T07:26:59;1.23;;;1.23;;
10687;SDS011;5392;42.688;23.298;2023-11-19T07:29:26;1.23;;;1.10;;
10687;SDS011;5392;42.688;23.298;2023-11-19T07:31:55;1.92;;;1.45;;
10687;SDS011;5392;42.688;23.298;2023-11-19T07:34:22;1.70;;;1.60;;
10687;SDS011;5392;42.688;23.298;2023-11-19T07:36:49;1.30;;;0.88;;
10687;SDS011;5392;42.688;23.298;2023-11-19T07:39:16;0.90;;;0.90;;
10687;SDS011;5392;42.688;23.298;2023-11-19T07:41:43;1.05;;;0.50;;
10687;SDS011;5392;42.688;23.298;2023-11-19T07:44:10;0.93;;;0.90;;
10687;SDS011;5392;42.688;23.298;2023-11-19T07:46:37;4.88;;;0.80;;
10687;SDS011;5392;42.688;23.298;2023-11-19T07:49:04;1.05;;;1.05;;
10687;SDS011;5392;42.688;23.298;2023-11-19T07:51:31;1.75;;;1.23;;
10687;SDS011;5392;42.688;23.298;2023-11-19T07:53:57;3.30;;;1.05;;
10687;SDS011;5392;42.688;23.298;2023-11-19T07:56:24;1.15;;;0.98;;
10687;SDS011;5392;42.688;23.298;2023-11-19T07:58:51;0.80;;;0.80;;
10687;SDS011;5392;42.688;23.298;2023-11-19T08:01:19;0.80;;;0.70;;
10687;SDS011;5392;42.688;23.298;2023-11-19T08:03:45;0.93;;;0.65;;
10687;SDS011;5392;42.688;23.298;2023-11-19T08:06:15;0.85;;;0.85;;
10687;SDS011;5392;42.688;23.298;2023-11-19T08:08:42;1.20;;;1.10;;
10687;SDS011;5392;42.688;23.298;2023-11-19T08:11:09;0.80;;;0.80;;
10687;SDS011;5392;42.688;23.298;2023-11-19T08:13:36;0.80;;;0.80;;
10687;SDS011;5392;42.688;23.298;2023-11-19T08:16:02;0.95;;;0.95;;
10687;SDS011;5392;42.688;23.298;2023-11-19T08:18:29;1.17;;;1.00;;
10687;SDS011;5392;42.688;23.298;2023-11-19T08:20:56;5.80;;;2.70;;
10687;SDS011;5392;42.688;23.298;2023-11-19T08:23:24;9.80;;;8.48;;
10687;SDS011;5392;42.688;23.298;2023-11-19T08:25:52;27.70;;;14.75;;
10687;SDS011;5392;42.688;23.298;2023-11-19T08:28:19;48.80;;;27.13;;
10687;SDS011;5392;42.688;23.298;2023-11-19T08:30:45;11.85;;;9.45;;
10687;SDS011;5392;42.688;23.298;2023-11-19T08:33:12;6.55;;;4.63;;
10687;SDS011;5392;42.688;23.298;2023-11-19T08:35:38;3.83;;;3.53;;
10687;SDS011;5392;42.688;23.298;2023-11-19T08:38:05;4.47;;;4.15;;
10687;SDS011;5392;42.688;23.298;2023-11-19T08:40:32;13.85;;;11.48;;
10687;SDS011;5392;42.688;23.298;2023-11-19T08:42:58;6.15;;;5.65;;
10687;SDS011;5392;42.688;23.298;2023-11-19T08:45:25;4.25;;;3.83;;
10687;SDS011;5392;42.688;23.298;2023-11-19T08:47:52;2.97;;;2.88;;
10687;SDS011;5392;42.688;23.298;2023-11-19T08:50:18;1.55;;;1.10;;
10687;SDS011;5392;42.688;23.298;2023-11-19T08:52:45;1.10;;;1.00;;
10687;SDS011;5392;42.688;23.298;2023-11-19T08:55:12;0.80;;;0.80;;
10687;SDS011;5392;42.688;23.298;2023-11-19T08:57:39;0.88;;;0.88;;
10687;SDS011;5392;42.688;23.298;2023-11-19T09:00:06;1.33;;;0.70;;
10687;SDS011;5392;42.688;23.298;2023-11-19T09:02:36;1.40;;;1.30;;
10687;SDS011;5392;42.688;23.298;2023-11-19T09:05:04;3.03;;;2.92;;
10687;SDS011;5392;42.688;23.298;2023-11-19T09:07:31;1.20;;;1.10;;
10687;SDS011;5392;42.688;23.298;2023-11-19T09:09:58;3.47;;;3.25;;
10687;SDS011;5392;42.688;23.298;2023-11-19T09:12:25;4.43;;;2.13;;
10687;SDS011;5392;42.688;23.298;2023-11-19T09:14:51;1.00;;;1.00;;
10687;SDS011;5392;42.688;23.298;2023-11-19T09:17:18;2.20;;;1.73;;
10687;SDS011;5392;42.688;23.298;2023-11-19T09:19:44;0.90;;;0.90;;
10687;SDS011;5392;42.688;23.298;2023-11-19T09:22:12;1.40;;;1.30;;
10687;SDS011;5392;42.688;23.298;2023-11-19T09:24:38;5.28;;;4.88;;
10687;SDS011;5392;42.688;23.298;2023-11-19T09:27:05;7.78;;;5.03;;
10687;SDS011;5392;42.688;23.298;2023-11-19T09:29:32;1.88;;;1.77;;
10687;SDS011;5392;42.688;23.298;2023-11-19T09:31:59;1.33;;;1.02;;
10687;SDS011;5392;42.688;23.298;2023-11-19T09:34:25;0.80;;;0.80;;
10687;SDS011;5392;42.688;23.298;2023-11-19T09:36:52;2.15;;;1.00;;
10687;SDS011;5392;42.688;23.298;2023-11-19T09:39:19;1.35;;;1.30;;
10687;SDS011;5392;42.688;23.298;2023-11-19T09:41:47;0.80;;;0.80;;
10687;SDS011;5392;42.688;23.298;2023-11-19T09:44:13;0.98;;;0.95;;
10687;SDS011;5392;42.688;23.298;2023-11-19T09:46:44;1.15;;;0.70;;
10687;SDS011;5392;42.688;23.298;2023-11-19T09:49:12;0.88;;;0.88;;
10687;SDS011;5392;42.688;23.298;2023-11-19T09:51:39;0.85;;;0.85;;
10687;SDS011;5392;42.688;23.298;2023-11-19T09:54:06;1.50;;;0.95;;
10687;SDS011;5392;42.688;23.298;2023-11-19T09:56:33;2.95;;;0.90;;
10687;SDS011;5392;42.688;23.298;2023-11-19T09:59:01;1.88;;;1.42;;
10687;SDS011;5392;42.688;23.298;2023-11-19T10:01:28;5.10;;;4.63;;
10687;SDS011;5392;42.688;23.298;2023-11-19T10:03:55;2.72;;;2.63;;
10687;SDS011;5392;42.688;23.298;2023-11-19T10:06:22;2.13;;;2.03;;
10687;SDS011;5392;42.688;23.298;2023-11-19T10:08:51;1.98;;;1.63;;
10687;SDS011;5392;42.688;23.298;2023-11-19T10:11:18;1.02;;;1.02;;
10687;SDS011;5392;42.688;23.298;2023-11-19T10:13:44;1.58;;;1.48;;
10687;SDS011;5392;42.688;23.298;2023-11-19T10:16:14;0.88;;;0.88;;
10687;SDS011;5392;42.688;23.298;2023-11-19T10:18:49;2.60;;;1.25;;
10687;SDS011;5392;42.688;23.298;2023-11-19T10:21:17;6.38;;;5.88;;
10687;SDS011;5392;42.688;23.298;2023-11-19T10:24:01;2.67;;;2.47;;
10687;SDS011;5392;42.688;23.298;2023-11-19T10:26:28;1.90;;;1.58;;
10687;SDS011;5392;42.688;23.298;2023-11-19T10:28:56;1.95;;;1.02;;
10687;SDS011;5392;42.688;23.298;2023-11-19T10:31:23;1.08;;;1.00;;
10687;SDS011;5392;42.688;23.298;2023-11-19T10:33:53;2.15;;;2.03;;
10687;SDS011;5392;42.688;23.298;2023-11-19T10:36:20;3.08;;;1.00;;
10687;SDS011;5392;42.688;23.298;2023-11-19T10:38:53;1.27;;;1.20;;
10687;SDS011;5392;42.688;23.298;2023-11-19T10:41:26;1.25;;;0.60;;
10687;SDS011;5392;42.688;23.298;2023-11-19T10:43:53;2.33;;;1.05;;
10687;SDS011;5392;42.688;23.298;2023-11-19T10:46:20;0.70;;;0.70;;
10687;SDS011;5392;42.688;23.298;2023-11-19T10:48:49;0.85;;;0.65;;
10687;SDS011;5392;42.688;23.298;2023-11-19T10:51:19;1.50;;;1.10;;
10687;SDS011;5392;42.688;23.298;2023-11-19T10:53:50;2.60;;;0.85;;
10687;SDS011;5392;42.688;23.298;2023-11-19T10:56:17;0.60;;;0.60;;
10687;SDS011;5392;42.688;23.298;2023-11-19T10:58:47;2.80;;;0.70;;
10687;SDS011;5392;42.688;23.298;2023-11-19T11:01:18;3.65;;;2.30;;
10687;SDS011;5392;42.688;23.298;2023-11-19T11:03:47;1.33;;;0.70;;
10687;SDS011;5392;42.688;23.298;2023-11-19T11:06:14;1.38;;;0.70;;
10687;SDS011;5392;42.688;23.298;2023-11-19T11:08:40;1.77;;;0.77;;
10687;SDS011;5392;42.688;23.298;2023-11-19T11:11:08;0.60;;;0.60;;
10687;SDS011;5392;42.688;23.298;2023-11-19T11:13:36;0.50;;;0.50;;
10687;SDS011;5392;42.688;23.298;2023-11-19T11:16:03;1.25;;;1.25;;
10687;SDS011;5392;42.688;23.298;2023-11-19T11:18:31;0.93;;;0.75;;
10687;SDS011;5392;42.688;23.298;2023-11-19T11:21:00;1.55;;;0.73;;
10687;SDS011;5392;42.688;23.298;2023-11-19T11:29:10;0.75;;;0.40;;
10687;SDS011;5392;42.688;23.298;2023-11-19T11:32:12;0.60;;;0.60;;
10687;SDS011;5392;42.688;23.298;2023-11-19T11:39:57;14.98;;;10.38;;
10687;SDS011;5392;42.688;23.298;2023-11-19T11:47:50;0.80;;;0.80;;
10687;SDS011;5392;42.688;23.298;2023-11-19T11:50:14;0.50;;;0.50;;
10687;SDS011;5392;42.688;23.298;2023-11-19T11:58:09;1.60;;;1.50;;
10687;SDS011;5392;42.688;23.298;2023-11-19T12:00:39;0.80;;;0.80;;
10687;SDS011;5392;42.688;23.298;2023-11-19T12:03:07;0.90;;;0.88;;
10687;SDS011;5392;42.688;23.298;2023-11-19T12:05:43;0.70;;;0.70;;
10687;SDS011;5392;42.688;23.298;2023-11-19T12:08:14;0.40;;;0.40;;
10687;SDS011;5392;42.688;23.298;2023-11-19T12:10:45;0.40;;;0.40;;
10687;SDS011;5392;42.688;23.298;2023-11-19T12:13:13;1.50;;;0.52;;
10687;SDS011;5392;42.688;23.298;2023-11-19T12:18:29;0.43;;;0.43;;
10687;SDS011;5392;42.688;23.298;2023-11-19T12:20:57;0.30;;;0.30;;
10687;SDS011;5392;42.688;23.298;2023-11-19T12:23:27;0.40;;;0.40;;
10687;SDS011;5392;42.688;23.298;2023-11-19T12:25:55;1.02;;;0.50;;
10687;SDS011;5392;42.688;23.298;2023-11-19T12:28:22;1.58;;;0.60;;
10687;SDS011;5392;42.688;23.298;2023-11-19T12:30:50;0.70;;;0.70;;
10687;SDS011;5392;42.688;23.298;2023-11-19T12:33:17;0.80;;;0.65;;
10687;SDS011;5392;42.688;23.298;2023-11-19T12:35:44;1.35;;;0.40;;
10687;SDS011;5392;42.688;23.298;2023-11-19T12:38:21;0.40;;;0.40;;
10687;SDS011;5392;42.688;23.298;2023-11-19T12:40:47;2.33;;;0.40;;
10687;SDS011;5392;42.688;23.298;2023-11-19T12:43:23;0.52;;;0.47;;
10687;SDS011;5392;42.688;23.298;2023-11-19T12:45:50;0.40;;;0.40;;
10687;SDS011;5392;42.688;23.298;2023-11-19T12:48:17;0.50;;;0.50;;
10687;SDS011;5392;42.688;23.298;2023-11-19T12:50:56;1.10;;;0.50;;
10687;SDS011;5392;42.688;23.298;2023-11-19T12:53:24;0.50;;;0.50;;
10687;SDS011;5392;42.688;23.298;2023-11-19T12:55:51;0.50;;;0.50;;
10687;SDS011;5392;42.688;23.298;2023-11-19T12:58:30;0.50;;;0.50;;
10687;SDS011;5392;42.688;23.298;2023-11-19T13:01:01;0.70;;;0.60;;
10687;SDS011;5392;42.688;23.298;2023-11-19T13:03:34;1.23;;;0.57;;
10687;SDS011;5392;42.688;23.298;2023-11-19T13:06:13;0.50;;;0.50;;
10687;SDS011;5392;42.688;23.298;2023-11-19T13:08:44;0.60;;;0.60;;
10687;SDS011;5392;42.688;23.298;2023-11-19T13:11:11;0.60;;;0.60;;
10687;SDS011;5392;42.688;23.298;2023-11-19T13:13:54;1.75;;;0.90;;
10687;SDS011;5392;42.688;23.298;2023-11-19T13:16:21;0.75;;;0.60;;
10687;SDS011;5392;42.688;23.298;2023-11-19T13:18:48;0.70;;;0.70;;
10687;SDS011;5392;42.688;23.298;2023-11-19T13:21:15;0.65;;;0.60;;
10687;SDS011;5392;42.688;23.298;2023-11-19T13:23:41;0.63;;;0.63;;
10687;SDS011;5392;42.688;23.298;2023-11-19T13:26:09;0.52;;;0.50;;
10687;SDS011;5392;42.688;23.298;2023-11-19T13:28:35;0.75;;;0.75;;
10687;SDS011;5392;42.688;23.298;2023-11-19T13:31:02;0.60;;;0.60;;
10687;SDS011;5392;42.688;23.298;2023-11-19T13:33:29;0.60;;;0.60;;
10687;SDS011;5392;42.688;23.298;2023-11-19T13:35:56;0.80;;;0.80;;
10687;SDS011;5392;42.688;23.298;2023-11-19T13:38:23;0.60;;;0.60;;
10687;SDS011;5392;42.688;23.298;2023-11-19T13:40:50;0.50;;;0.50;;
10687;SDS011;5392;42.688;23.298;2023-11-19T13:43:17;0.60;;;0.60;;
10687;SDS011;5392;42.688;23.298;2023-11-19T13:45:44;0.68;;;0.68;;
10687;SDS011;5392;42.688;23.298;2023-11-19T13:48:11;0.60;;;0.60;;
10687;SDS011;5392;42.688;23.298;2023-11-19T13:50:37;1.30;;;0.70;;
10687;SDS011;5392;42.688;23.298;2023-11-19T13:53:04;1.38;;;0.50;;
10687;SDS011;5392;42.688;23.298;2023-11-19T13:55:31;0.70;;;0.70;;
10687;SDS011;5392;42.688;23.298;2023-11-19T13:57:57;1.35;;;1.25;;
10687;SDS011;5392;42.688;23.298;2023-11-19T14:00:24;5.00;;;1.13;;
10687;SDS011;5392;42.688;23.298;2023-11-19T14:02:51;0.95;;;0.95;;
10687;SDS011;5392;42.688;23.298;2023-11-19T14:05:18;1.42;;;0.95;;
10687;SDS011;5392;42.688;23.298;2023-11-19T14:08:03;0.57;;;0.57;;
10687;SDS011;5392;42.688;23.298;2023-11-19T14:10:49;0.60;;;0.40;;
10687;SDS011;5392;42.688;23.298;2023-11-19T14:13:15;2.17;;;0.60;;
10687;SDS011;5392;42.688;23.298;2023-11-19T14:15:42;1.23;;;0.70;;
10687;SDS011;5392;42.688;23.298;2023-11-19T14:18:11;0.77;;;0.52;;
10687;SDS011;5392;42.688;23.298;2023-11-19T14:20:37;0.50;;;0.50;;
10687;SDS011;5392;42.688;23.298;2023-11-19T14:23:05;0.60;;;0.60;;
10687;SDS011;5392;42.688;23.298;2023-11-19T14:25:32;0.50;;;0.50;;
10687;SDS011;5392;42.688;23.298;2023-11-19T14:27:58;0.75;;;0.75;;
10687;SDS011;5392;42.688;23.298;2023-11-19T14:30:25;0.50;;;0.50;;
10687;SDS011;5392;42.688;23.298;2023-11-19T14:32:52;0.60;;;0.50;;
10687;SDS011;5392;42.688;23.298;2023-11-19T14:35:20;0.80;;;0.73;;
10687;SDS011;5392;42.688;23.298;2023-11-19T14:37:47;0.60;;;0.60;;
10687;SDS011;5392;42.688;23.298;2023-11-19T14:40:13;1.40;;;0.60;;
10687;SDS011;5392;42.688;23.298;2023-11-19T14:42:40;0.95;;;0.70;;
10687;SDS011;5392;42.688;23.298;2023-11-19T14:45:07;0.70;;;0.70;;
10687;SDS011;5392;42.688;23.298;2023-11-19T14:47:34;0.70;;;0.70;;
10687;SDS011;5392;42.688;23.298;2023-11-19T14:50:01;0.82;;;0.82;;
10687;SDS011;5392;42.688;23.298;2023-11-19T14:52:27;1.63;;;1.10;;
10687;SDS011;5392;42.688;23.298;2023-11-19T14:54:54;2.40;;;1.10;;
10687;SDS011;5392;42.688;23.298;2023-11-19T14:57:23;2.40;;;1.55;;
10687;SDS011;5392;42.688;23.298;2023-11-19T14:59:49;2.58;;;2.38;;
10687;SDS011;5392;42.688;23.298;2023-11-19T15:02:16;1.67;;;1.58;;
10687;SDS011;5392;42.688;23.298;2023-11-19T15:04:44;3.80;;;2.05;;
10687;SDS011;5392;42.688;23.298;2023-11-19T15:07:11;2.50;;;2.30;;
10687;SDS011;5392;42.688;23.298;2023-11-19T15:09:37;1.20;;;1.10;;
10687;SDS011;5392;42.688;23.298;2023-11-19T15:12:04;3.20;;;1.35;;
10687;SDS011;5392;42.688;23.298;2023-11-19T15:14:31;2.65;;;1.40;;
10687;SDS011;5392;42.688;23.298;2023-11-19T15:16:58;3.90;;;1.30;;